sensor_id;sensor_type;location;lat;lon;timestamp;P1;durP1;ratioP1;P2;durP2;ratioP2
45254;SDS011;30989;52.078;21.014;2023-02-28T00:00:12;14.55;;;7.20;;
45254;SDS011;30989;52.078;21.014;2023-02-28T00:02:39;14.68;;;5.68;;
45254;SDS011;30989;52.078;21.014;2023-02-28T00:05:08;15.77;;;5.82;;
45254;SDS011;30989;52.078;21.014;2023-02-28T00:07:35;15.48;;;6.10;;
45254;SDS011;30989;52.078;21.014;2023-02-28T00:10:00;16.75;;;6.05;;
45254;SDS011;30989;52.078;21.014;2023-02-28T00:12:26;14.32;;;7.97;;
45254;SDS011;30989;52.078;21.014;2023-02-28T00:14:52;20.08;;;6.97;;
45254;SDS011;30989;52.078;21.014;2023-02-28T00:17:18;16.95;;;6.57;;
45254;SDS011;30989;52.078;21.014;2023-02-28T00:19:49;13.95;;;6.40;;
45254;SDS011;30989;52.078;21.014;2023-02-28T00:22:16;13.10;;;5.82;;
45254;SDS011;30989;52.078;21.014;2023-02-28T00:24:43;15.40;;;6.35;;
45254;SDS011;30989;52.078;21.014;2023-02-28T00:27:09;17.27;;;7.10;;
45254;SDS011;30989;52.078;21.014;2023-02-28T00:29:35;15.23;;;5.93;;
45254;SDS011;30989;52.078;21.014;2023-02-28T00:32:02;15.27;;;6.55;;
45254;SDS011;30989;52.078;21.014;2023-02-28T00:34:29;25.15;;;6.55;;
45254;SDS011;30989;52.078;21.014;2023-02-28T00:36:55;13.40;;;6.22;;
45254;SDS011;30989;52.078;21.014;2023-02-28T00:39:20;12.77;;;5.90;;
45254;SDS011;30989;52.078;21.014;2023-02-28T00:41:47;19.45;;;7.65;;
45254;SDS011;30989;52.078;21.014;2023-02-28T00:44:12;15.20;;;7.45;;
45254;SDS011;30989;52.078;21.014;2023-02-28T00:46:38;17.63;;;6.82;;
45254;SDS011;30989;52.078;21.014;2023-02-28T00:49:03;17.85;;;7.28;;
45254;SDS011;30989;52.078;21.014;2023-02-28T00:51:29;14.73;;;6.25;;
45254;SDS011;30989;52.078;21.014;2023-02-28T00:53:56;20.17;;;7.03;;
45254;SDS011;30989;52.078;21.014;2023-02-28T00:56:22;19.70;;;7.50;;
45254;SDS011;30989;52.078;21.014;2023-02-28T00:58:48;18.58;;;7.50;;
45254;SDS011;30989;52.078;21.014;2023-02-28T01:01:13;16.48;;;7.32;;
45254;SDS011;30989;52.078;21.014;2023-02-28T01:03:39;15.57;;;7.80;;
45254;SDS011;30989;52.078;21.014;2023-02-28T01:06:04;20.48;;;8.00;;
45254;SDS011;30989;52.078;21.014;2023-02-28T01:08:30;20.80;;;8.23;;
45254;SDS011;30989;52.078;21.014;2023-02-28T01:10:56;20.67;;;8.27;;
45254;SDS011;30989;52.078;21.014;2023-02-28T01:13:21;19.25;;;7.95;;
45254;SDS011;30989;52.078;21.014;2023-02-28T01:15:52;16.98;;;7.15;;
45254;SDS011;30989;52.078;21.014;2023-02-28T01:18:20;20.40;;;7.72;;
45254;SDS011;30989;52.078;21.014;2023-02-28T01:20:46;20.75;;;8.25;;
45254;SDS011;30989;52.078;21.014;2023-02-28T01:23:12;19.88;;;7.68;;
45254;SDS011;30989;52.078;21.014;2023-02-28T01:25:38;16.85;;;7.32;;
45254;SDS011;30989;52.078;21.014;2023-02-28T01:28:03;16.58;;;7.75;;
45254;SDS011;30989;52.078;21.014;2023-02-28T01:30:30;19.92;;;7.78;;
45254;SDS011;30989;52.078;21.014;2023-02-28T01:32:57;21.08;;;7.75;;
45254;SDS011;30989;52.078;21.014;2023-02-28T01:35:24;28.00;;;10.57;;
45254;SDS011;30989;52.078;21.014;2023-02-28T01:37:49;24.60;;;9.63;;
45254;SDS011;30989;52.078;21.014;2023-02-28T01:40:15;21.52;;;7.95;;
45254;SDS011;30989;52.078;21.014;2023-02-28T01:42:40;27.42;;;9.13;;
45254;SDS011;30989;52.078;21.014;2023-02-28T01:47:50;21.88;;;9.38;;
45254;SDS011;30989;52.078;21.014;2023-02-28T01:50:21;26.23;;;9.50;;
45254;SDS011;30989;52.078;21.014;2023-02-28T01:52:50;26.17;;;9.38;;
45254;SDS011;30989;52.078;21.014;2023-02-28T01:55:18;29.25;;;9.15;;
45254;SDS011;30989;52.078;21.014;2023-02-28T01:57:49;27.23;;;9.90;;
45254;SDS011;30989;52.078;21.014;2023-02-28T02:00:18;37.85;;;11.27;;
45254;SDS011;30989;52.078;21.014;2023-02-28T02:02:47;31.27;;;12.00;;
45254;SDS011;30989;52.078;21.014;2023-02-28T02:05:17;36.10;;;12.93;;
45254;SDS011;30989;52.078;21.014;2023-02-28T02:07:48;42.65;;;13.27;;
45254;SDS011;30989;52.078;21.014;2023-02-28T02:10:32;37.00;;;13.25;;
45254;SDS011;30989;52.078;21.014;2023-02-28T02:22:05;41.20;;;12.38;;
45254;SDS011;30989;52.078;21.014;2023-02-28T02:38:55;34.53;;;11.05;;
45254;SDS011;30989;52.078;21.014;2023-02-28T02:41:53;39.85;;;12.93;;
45254;SDS011;30989;52.078;21.014;2023-02-28T02:47:29;31.50;;;12.85;;
45254;SDS011;30989;52.078;21.014;2023-02-28T02:49:57;33.20;;;11.02;;
45254;SDS011;30989;52.078;21.014;2023-02-28T02:52:35;29.10;;;10.30;;
45254;SDS011;30989;52.078;21.014;2023-02-28T02:55:06;32.95;;;11.93;;
45254;SDS011;30989;52.078;21.014;2023-02-28T02:57:46;36.17;;;11.35;;
45254;SDS011;30989;52.078;21.014;2023-02-28T03:00:16;31.17;;;11.20;;
45254;SDS011;30989;52.078;21.014;2023-02-28T03:02:46;35.05;;;12.50;;
45254;SDS011;30989;52.078;21.014;2023-02-28T03:05:20;32.33;;;11.07;;
45254;SDS011;30989;52.078;21.014;2023-02-28T03:07:50;42.88;;;13.10;;
45254;SDS011;30989;52.078;21.014;2023-02-28T03:10:29;42.72;;;13.55;;
45254;SDS011;30989;52.078;21.014;2023-02-28T03:16:29;30.88;;;11.93;;
45254;SDS011;30989;52.078;21.014;2023-02-28T03:19:17;24.15;;;10.88;;
45254;SDS011;30989;52.078;21.014;2023-02-28T03:21:48;30.05;;;11.95;;
45254;SDS011;30989;52.078;21.014;2023-02-28T03:24:26;31.42;;;12.95;;
45254;SDS011;30989;52.078;21.014;2023-02-28T03:26:58;36.35;;;11.48;;
45254;SDS011;30989;52.078;21.014;2023-02-28T03:29:33;30.73;;;11.77;;
45254;SDS011;30989;52.078;21.014;2023-02-28T03:32:45;26.27;;;11.07;;
45254;SDS011;30989;52.078;21.014;2023-02-28T03:35:17;36.55;;;12.88;;
45254;SDS011;30989;52.078;21.014;2023-02-28T03:37:56;24.33;;;9.85;;
45254;SDS011;30989;52.078;21.014;2023-02-28T03:40:30;29.33;;;12.38;;
45254;SDS011;30989;52.078;21.014;2023-02-28T03:43:00;34.90;;;11.32;;
45254;SDS011;30989;52.078;21.014;2023-02-28T03:45:29;25.27;;;11.05;;
45254;SDS011;30989;52.078;21.014;2023-02-28T03:48:01;26.83;;;10.02;;
45254;SDS011;30989;52.078;21.014;2023-02-28T03:50:36;36.90;;;12.85;;
45254;SDS011;30989;52.078;21.014;2023-02-28T03:53:08;41.58;;;14.43;;
45254;SDS011;30989;52.078;21.014;2023-02-28T03:55:46;38.90;;;14.57;;
45254;SDS011;30989;52.078;21.014;2023-02-28T03:58:23;35.08;;;13.23;;
45254;SDS011;30989;52.078;21.014;2023-02-28T04:00:56;36.53;;;12.48;;
45254;SDS011;30989;52.078;21.014;2023-02-28T04:03:39;30.65;;;11.50;;
45254;SDS011;30989;52.078;21.014;2023-02-28T04:06:12;34.30;;;12.68;;
45254;SDS011;30989;52.078;21.014;2023-02-28T04:08:41;29.80;;;11.75;;
45254;SDS011;30989;52.078;21.014;2023-02-28T04:11:08;34.13;;;11.95;;
45254;SDS011;30989;52.078;21.014;2023-02-28T04:13:43;46.83;;;14.60;;
45254;SDS011;30989;52.078;21.014;2023-02-28T04:16:09;37.13;;;13.98;;
45254;SDS011;30989;52.078;21.014;2023-02-28T04:18:38;49.05;;;15.80;;
45254;SDS011;30989;52.078;21.014;2023-02-28T04:21:04;49.35;;;16.70;;
45254;SDS011;30989;52.078;21.014;2023-02-28T04:23:30;38.70;;;13.70;;
45254;SDS011;30989;52.078;21.014;2023-02-28T04:25:56;41.08;;;14.32;;
45254;SDS011;30989;52.078;21.014;2023-02-28T04:28:22;45.42;;;16.27;;
45254;SDS011;30989;52.078;21.014;2023-02-28T04:30:47;50.92;;;16.17;;
45254;SDS011;30989;52.078;21.014;2023-02-28T04:33:13;35.42;;;14.30;;
45254;SDS011;30989;52.078;21.014;2023-02-28T04:35:38;42.95;;;14.10;;
45254;SDS011;30989;52.078;21.014;2023-02-28T04:38:04;45.65;;;14.50;;
45254;SDS011;30989;52.078;21.014;2023-02-28T04:40:29;38.53;;;14.77;;
45254;SDS011;30989;52.078;21.014;2023-02-28T04:42:54;44.30;;;14.60;;
45254;SDS011;30989;52.078;21.014;2023-02-28T04:45:20;41.83;;;15.05;;
45254;SDS011;30989;52.078;21.014;2023-02-28T04:47:45;41.25;;;15.80;;
45254;SDS011;30989;52.078;21.014;2023-02-28T04:50:11;46.42;;;15.70;;
45254;SDS011;30989;52.078;21.014;2023-02-28T04:52:36;44.40;;;15.45;;
45254;SDS011;30989;52.078;21.014;2023-02-28T04:55:02;39.05;;;15.10;;
45254;SDS011;30989;52.078;21.014;2023-02-28T04:57:27;44.92;;;16.67;;
45254;SDS011;30989;52.078;21.014;2023-02-28T04:59:53;42.88;;;15.27;;
45254;SDS011;30989;52.078;21.014;2023-02-28T05:02:18;50.38;;;16.58;;
45254;SDS011;30989;52.078;21.014;2023-02-28T05:04:45;42.15;;;17.15;;
45254;SDS011;30989;52.078;21.014;2023-02-28T05:07:10;57.88;;;17.52;;
45254;SDS011;30989;52.078;21.014;2023-02-28T05:09:36;44.63;;;17.40;;
45254;SDS011;30989;52.078;21.014;2023-02-28T05:12:01;45.65;;;17.08;;
45254;SDS011;30989;52.078;21.014;2023-02-28T05:14:27;47.22;;;17.95;;
45254;SDS011;30989;52.078;21.014;2023-02-28T05:16:52;47.60;;;17.85;;
45254;SDS011;30989;52.078;21.014;2023-02-28T05:19:17;48.80;;;18.73;;
45254;SDS011;30989;52.078;21.014;2023-02-28T05:21:53;45.63;;;15.60;;
45254;SDS011;30989;52.078;21.014;2023-02-28T05:24:19;49.58;;;17.45;;
45254;SDS011;30989;52.078;21.014;2023-02-28T05:26:47;41.53;;;15.95;;
45254;SDS011;30989;52.078;21.014;2023-02-28T05:29:13;38.38;;;16.63;;
45254;SDS011;30989;52.078;21.014;2023-02-28T05:31:39;50.20;;;17.05;;
45254;SDS011;30989;52.078;21.014;2023-02-28T05:34:04;36.90;;;16.85;;
45254;SDS011;30989;52.078;21.014;2023-02-28T05:36:30;58.58;;;19.15;;
45254;SDS011;30989;52.078;21.014;2023-02-28T05:38:56;45.58;;;15.98;;
45254;SDS011;30989;52.078;21.014;2023-02-28T05:41:22;44.22;;;18.05;;
45254;SDS011;30989;52.078;21.014;2023-02-28T05:43:47;67.68;;;18.80;;
45254;SDS011;30989;52.078;21.014;2023-02-28T05:46:13;50.80;;;20.80;;
45254;SDS011;30989;52.078;21.014;2023-02-28T05:48:40;43.08;;;15.95;;
45254;SDS011;30989;52.078;21.014;2023-02-28T05:51:07;48.67;;;17.48;;
45254;SDS011;30989;52.078;21.014;2023-02-28T05:53:34;43.80;;;16.77;;
45254;SDS011;30989;52.078;21.014;2023-02-28T05:56:00;48.42;;;18.17;;
45254;SDS011;30989;52.078;21.014;2023-02-28T05:58:26;47.50;;;16.90;;
45254;SDS011;30989;52.078;21.014;2023-02-28T06:00:59;40.28;;;15.57;;
45254;SDS011;30989;52.078;21.014;2023-02-28T06:03:25;35.83;;;15.23;;
45254;SDS011;30989;52.078;21.014;2023-02-28T06:05:51;40.13;;;13.98;;
45254;SDS011;30989;52.078;21.014;2023-02-28T06:08:17;36.67;;;14.52;;
45254;SDS011;30989;52.078;21.014;2023-02-28T06:10:43;34.25;;;12.88;;
45254;SDS011;30989;52.078;21.014;2023-02-28T06:13:11;32.90;;;12.98;;
45254;SDS011;30989;52.078;21.014;2023-02-28T06:15:38;30.45;;;13.13;;
45254;SDS011;30989;52.078;21.014;2023-02-28T06:18:03;30.65;;;11.57;;
45254;SDS011;30989;52.078;21.014;2023-02-28T06:20:29;29.52;;;12.05;;
45254;SDS011;30989;52.078;21.014;2023-02-28T06:22:58;24.85;;;10.88;;
45254;SDS011;30989;52.078;21.014;2023-02-28T06:25:24;31.95;;;11.75;;
45254;SDS011;30989;52.078;21.014;2023-02-28T06:27:51;28.13;;;11.95;;
45254;SDS011;30989;52.078;21.014;2023-02-28T06:30:16;26.05;;;10.38;;
45254;SDS011;30989;52.078;21.014;2023-02-28T06:32:42;31.08;;;11.57;;
45254;SDS011;30989;52.078;21.014;2023-02-28T06:35:07;26.45;;;10.43;;
45254;SDS011;30989;52.078;21.014;2023-02-28T06:37:33;31.13;;;12.23;;
45254;SDS011;30989;52.078;21.014;2023-02-28T06:40:00;29.63;;;10.65;;
45254;SDS011;30989;52.078;21.014;2023-02-28T06:42:25;32.97;;;13.00;;
45254;SDS011;30989;52.078;21.014;2023-02-28T06:44:54;27.67;;;10.43;;
45254;SDS011;30989;52.078;21.014;2023-02-28T06:47:22;28.77;;;11.73;;
45254;SDS011;30989;52.078;21.014;2023-02-28T06:49:48;25.92;;;10.10;;
45254;SDS011;30989;52.078;21.014;2023-02-28T06:52:14;29.33;;;9.57;;
45254;SDS011;30989;52.078;21.014;2023-02-28T06:54:40;21.70;;;8.82;;
45254;SDS011;30989;52.078;21.014;2023-02-28T06:57:06;26.70;;;10.35;;
45254;SDS011;30989;52.078;21.014;2023-02-28T06:59:31;26.63;;;10.20;;
45254;SDS011;30989;52.078;21.014;2023-02-28T07:01:57;19.50;;;9.18;;
45254;SDS011;30989;52.078;21.014;2023-02-28T07:04:22;20.17;;;9.15;;
45254;SDS011;30989;52.078;21.014;2023-02-28T07:06:48;22.75;;;8.45;;
45254;SDS011;30989;52.078;21.014;2023-02-28T07:09:13;22.58;;;8.27;;
45254;SDS011;30989;52.078;21.014;2023-02-28T07:11:39;16.23;;;6.63;;
45254;SDS011;30989;52.078;21.014;2023-02-28T07:14:06;16.38;;;7.28;;
45254;SDS011;30989;52.078;21.014;2023-02-28T07:16:32;20.15;;;7.25;;
45254;SDS011;30989;52.078;21.014;2023-02-28T07:18:57;17.52;;;7.78;;
45254;SDS011;30989;52.078;21.014;2023-02-28T07:21:23;28.52;;;9.95;;
45254;SDS011;30989;52.078;21.014;2023-02-28T07:23:49;23.00;;;9.55;;
45254;SDS011;30989;52.078;21.014;2023-02-28T07:26:15;23.70;;;8.38;;
45254;SDS011;30989;52.078;21.014;2023-02-28T07:28:42;25.48;;;8.02;;
45254;SDS011;30989;52.078;21.014;2023-02-28T07:31:09;20.25;;;8.38;;
45254;SDS011;30989;52.078;21.014;2023-02-28T07:33:36;21.55;;;7.93;;
45254;SDS011;30989;52.078;21.014;2023-02-28T07:36:06;19.67;;;8.50;;
45254;SDS011;30989;52.078;21.014;2023-02-28T07:38:38;20.45;;;8.63;;
45254;SDS011;30989;52.078;21.014;2023-02-28T07:41:04;19.17;;;7.38;;
45254;SDS011;30989;52.078;21.014;2023-02-28T07:43:30;20.10;;;9.20;;
45254;SDS011;30989;52.078;21.014;2023-02-28T07:46:01;19.73;;;9.25;;
45254;SDS011;30989;52.078;21.014;2023-02-28T07:48:28;32.00;;;13.20;;
45254;SDS011;30989;52.078;21.014;2023-02-28T07:50:54;19.80;;;8.48;;
45254;SDS011;30989;52.078;21.014;2023-02-28T07:53:20;19.10;;;8.02;;
45254;SDS011;30989;52.078;21.014;2023-02-28T07:55:46;26.77;;;8.98;;
45254;SDS011;30989;52.078;21.014;2023-02-28T07:58:11;17.58;;;6.78;;
45254;SDS011;30989;52.078;21.014;2023-02-28T08:00:37;14.98;;;5.85;;
45254;SDS011;30989;52.078;21.014;2023-02-28T08:03:02;24.58;;;10.23;;
45254;SDS011;30989;52.078;21.014;2023-02-28T08:05:28;17.48;;;6.97;;
45254;SDS011;30989;52.078;21.014;2023-02-28T08:07:53;15.82;;;5.78;;
45254;SDS011;30989;52.078;21.014;2023-02-28T08:10:19;14.38;;;5.28;;
45254;SDS011;30989;52.078;21.014;2023-02-28T08:12:44;10.45;;;5.30;;
45254;SDS011;30989;52.078;21.014;2023-02-28T08:15:10;10.88;;;5.18;;
45254;SDS011;30989;52.078;21.014;2023-02-28T08:17:36;12.77;;;5.47;;
45254;SDS011;30989;52.078;21.014;2023-02-28T08:20:01;14.68;;;5.03;;
45254;SDS011;30989;52.078;21.014;2023-02-28T08:22:26;13.75;;;5.45;;
45254;SDS011;30989;52.078;21.014;2023-02-28T08:24:52;12.88;;;5.43;;
45254;SDS011;30989;52.078;21.014;2023-02-28T08:27:17;12.82;;;5.00;;
45254;SDS011;30989;52.078;21.014;2023-02-28T08:29:43;10.90;;;4.97;;
45254;SDS011;30989;52.078;21.014;2023-02-28T08:32:08;14.38;;;5.63;;
45254;SDS011;30989;52.078;21.014;2023-02-28T08:34:34;20.38;;;9.60;;
45254;SDS011;30989;52.078;21.014;2023-02-28T08:36:59;14.88;;;5.95;;
45254;SDS011;30989;52.078;21.014;2023-02-28T08:39:25;27.20;;;10.50;;
45254;SDS011;30989;52.078;21.014;2023-02-28T08:41:50;11.77;;;3.95;;
45254;SDS011;30989;52.078;21.014;2023-02-28T08:44:16;11.98;;;4.28;;
45254;SDS011;30989;52.078;21.014;2023-02-28T08:46:41;12.65;;;4.55;;
45254;SDS011;30989;52.078;21.014;2023-02-28T08:49:07;12.30;;;5.10;;
45254;SDS011;30989;52.078;21.014;2023-02-28T08:51:35;14.32;;;5.40;;
45254;SDS011;30989;52.078;21.014;2023-02-28T08:54:00;16.25;;;5.82;;
45254;SDS011;30989;52.078;21.014;2023-02-28T08:56:27;13.52;;;5.28;;
45254;SDS011;30989;52.078;21.014;2023-02-28T08:58:54;12.20;;;4.95;;
45254;SDS011;30989;52.078;21.014;2023-02-28T09:01:25;13.15;;;5.40;;
45254;SDS011;30989;52.078;21.014;2023-02-28T09:03:52;6.05;;;3.50;;
45254;SDS011;30989;52.078;21.014;2023-02-28T09:06:19;11.68;;;5.03;;
45254;SDS011;30989;52.078;21.014;2023-02-28T09:08:46;15.43;;;6.03;;
45254;SDS011;30989;52.078;21.014;2023-02-28T09:11:12;10.02;;;4.70;;
45254;SDS011;30989;52.078;21.014;2023-02-28T09:13:37;13.02;;;6.00;;
45254;SDS011;30989;52.078;21.014;2023-02-28T09:16:04;10.68;;;5.32;;
45254;SDS011;30989;52.078;21.014;2023-02-28T09:18:33;12.80;;;5.03;;
45254;SDS011;30989;52.078;21.014;2023-02-28T09:21:02;12.25;;;5.57;;
45254;SDS011;30989;52.078;21.014;2023-02-28T09:23:32;14.45;;;5.45;;
45254;SDS011;30989;52.078;21.014;2023-02-28T09:25:57;13.88;;;5.85;;
45254;SDS011;30989;52.078;21.014;2023-02-28T09:28:23;9.73;;;5.35;;
45254;SDS011;30989;52.078;21.014;2023-02-28T09:30:50;9.38;;;4.13;;
45254;SDS011;30989;52.078;21.014;2023-02-28T09:33:17;11.45;;;4.90;;
45254;SDS011;30989;52.078;21.014;2023-02-28T09:35:45;12.27;;;5.05;;
45254;SDS011;30989;52.078;21.014;2023-02-28T09:38:11;9.70;;;4.13;;
45254;SDS011;30989;52.078;21.014;2023-02-28T09:40:37;8.10;;;4.03;;
45254;SDS011;30989;52.078;21.014;2023-02-28T09:43:11;11.60;;;3.70;;
45254;SDS011;30989;52.078;21.014;2023-02-28T09:45:40;7.72;;;4.75;;
45254;SDS011;30989;52.078;21.014;2023-02-28T09:48:21;9.20;;;3.60;;
45254;SDS011;30989;52.078;21.014;2023-02-28T09:51:01;9.05;;;4.05;;
45254;SDS011;30989;52.078;21.014;2023-02-28T09:53:33;13.45;;;4.70;;
45254;SDS011;30989;52.078;21.014;2023-02-28T09:56:19;9.40;;;4.93;;
45254;SDS011;30989;52.078;21.014;2023-02-28T10:04:51;9.15;;;4.28;;
45254;SDS011;30989;52.078;21.014;2023-02-28T10:13:27;9.90;;;4.95;;
45254;SDS011;30989;52.078;21.014;2023-02-28T10:16:01;15.70;;;6.30;;
45254;SDS011;30989;52.078;21.014;2023-02-28T10:18:30;12.30;;;5.13;;
45254;SDS011;30989;52.078;21.014;2023-02-28T10:21:12;11.07;;;5.40;;
45254;SDS011;30989;52.078;21.014;2023-02-28T10:23:43;10.07;;;4.85;;
45254;SDS011;30989;52.078;21.014;2023-02-28T10:26:13;12.02;;;5.20;;
45254;SDS011;30989;52.078;21.014;2023-02-28T10:28:43;12.40;;;5.15;;
45254;SDS011;30989;52.078;21.014;2023-02-28T10:31:11;10.20;;;4.90;;
45254;SDS011;30989;52.078;21.014;2023-02-28T10:36:08;11.15;;;5.43;;
45254;SDS011;30989;52.078;21.014;2023-02-28T10:38:39;8.93;;;4.50;;
45254;SDS011;30989;52.078;21.014;2023-02-28T10:41:08;8.93;;;3.60;;
45254;SDS011;30989;52.078;21.014;2023-02-28T10:43:37;12.52;;;4.78;;
45254;SDS011;30989;52.078;21.014;2023-02-28T10:51:07;13.23;;;5.00;;
45254;SDS011;30989;52.078;21.014;2023-02-28T10:53:36;10.82;;;4.90;;
45254;SDS011;30989;52.078;21.014;2023-02-28T10:58:51;11.20;;;4.93;;
45254;SDS011;30989;52.078;21.014;2023-02-28T11:01:25;8.38;;;4.85;;
45254;SDS011;30989;52.078;21.014;2023-02-28T11:04:00;10.02;;;5.13;;
45254;SDS011;30989;52.078;21.014;2023-02-28T11:06:30;9.43;;;5.28;;
45254;SDS011;30989;52.078;21.014;2023-02-28T11:09:03;10.15;;;4.57;;
45254;SDS011;30989;52.078;21.014;2023-02-28T11:11:41;10.63;;;5.10;;
45254;SDS011;30989;52.078;21.014;2023-02-28T11:14:17;10.70;;;4.15;;
45254;SDS011;30989;52.078;21.014;2023-02-28T11:16:46;9.13;;;4.90;;
45254;SDS011;30989;52.078;21.014;2023-02-28T11:19:23;10.18;;;5.50;;
45254;SDS011;30989;52.078;21.014;2023-02-28T11:21:53;9.68;;;4.93;;
45254;SDS011;30989;52.078;21.014;2023-02-28T11:24:23;7.82;;;4.22;;
45254;SDS011;30989;52.078;21.014;2023-02-28T11:26:52;14.20;;;5.28;;
45254;SDS011;30989;52.078;21.014;2023-02-28T11:32:00;11.05;;;6.13;;
45254;SDS011;30989;52.078;21.014;2023-02-28T11:34:27;9.43;;;5.30;;
45254;SDS011;30989;52.078;21.014;2023-02-28T11:36:53;8.50;;;4.05;;
45254;SDS011;30989;52.078;21.014;2023-02-28T11:39:20;8.93;;;4.88;;
45254;SDS011;30989;52.078;21.014;2023-02-28T11:47:37;8.57;;;4.82;;
45254;SDS011;30989;52.078;21.014;2023-02-28T11:53:05;7.28;;;4.63;;
45254;SDS011;30989;52.078;21.014;2023-02-28T11:55:41;10.90;;;4.50;;
45254;SDS011;30989;52.078;21.014;2023-02-28T12:12:28;10.10;;;4.78;;
45254;SDS011;30989;52.078;21.014;2023-02-28T12:18:04;11.25;;;5.60;;
45254;SDS011;30989;52.078;21.014;2023-02-28T12:20:57;9.65;;;4.80;;
45254;SDS011;30989;52.078;21.014;2023-02-28T12:29:04;8.55;;;4.63;;
45254;SDS011;30989;52.078;21.014;2023-02-28T12:31:49;8.32;;;4.65;;
45254;SDS011;30989;52.078;21.014;2023-02-28T12:34:31;8.52;;;4.78;;
45254;SDS011;30989;52.078;21.014;2023-02-28T12:37:02;6.97;;;4.50;;
45254;SDS011;30989;52.078;21.014;2023-02-28T12:39:36;12.63;;;4.70;;
45254;SDS011;30989;52.078;21.014;2023-02-28T12:42:10;12.13;;;5.30;;
45254;SDS011;30989;52.078;21.014;2023-02-28T12:44:52;10.43;;;4.72;;
45254;SDS011;30989;52.078;21.014;2023-02-28T12:47:22;8.85;;;4.80;;
45254;SDS011;30989;52.078;21.014;2023-02-28T12:49:54;11.30;;;4.90;;
45254;SDS011;30989;52.078;21.014;2023-02-28T12:52:43;8.95;;;5.22;;
45254;SDS011;30989;52.078;21.014;2023-02-28T12:55:29;9.02;;;4.72;;
45254;SDS011;30989;52.078;21.014;2023-02-28T13:01:22;10.60;;;5.43;;
45254;SDS011;30989;52.078;21.014;2023-02-28T13:07:10;11.50;;;5.50;;
45254;SDS011;30989;52.078;21.014;2023-02-28T13:09:38;7.57;;;4.88;;
45254;SDS011;30989;52.078;21.014;2023-02-28T13:12:14;9.38;;;4.78;;
45254;SDS011;30989;52.078;21.014;2023-02-28T13:14:41;9.88;;;4.53;;
45254;SDS011;30989;52.078;21.014;2023-02-28T13:19:40;9.80;;;5.07;;
45254;SDS011;30989;52.078;21.014;2023-02-28T13:22:19;8.20;;;5.03;;
45254;SDS011;30989;52.078;21.014;2023-02-28T13:25:50;12.25;;;6.13;;
45254;SDS011;30989;52.078;21.014;2023-02-28T13:27:50;8.50;;;4.82;;
45254;SDS011;30989;52.078;21.014;2023-02-28T13:35:44;11.98;;;6.45;;
45254;SDS011;30989;52.078;21.014;2023-02-28T13:46:32;13.40;;;6.15;;
45254;SDS011;30989;52.078;21.014;2023-02-28T13:51:45;10.25;;;6.10;;
45254;SDS011;30989;52.078;21.014;2023-02-28T13:59:51;14.07;;;5.78;;
45254;SDS011;30989;52.078;21.014;2023-02-28T14:02:34;13.30;;;5.38;;
45254;SDS011;30989;52.078;21.014;2023-02-28T14:05:05;10.20;;;6.15;;
45254;SDS011;30989;52.078;21.014;2023-02-28T14:07:39;13.07;;;6.80;;
45254;SDS011;30989;52.078;21.014;2023-02-28T14:10:22;12.55;;;7.03;;
45254;SDS011;30989;52.078;21.014;2023-02-28T14:16:04;25.25;;;10.93;;
45254;SDS011;30989;52.078;21.014;2023-02-28T14:18:32;10.55;;;6.22;;
45254;SDS011;30989;52.078;21.014;2023-02-28T14:26:33;10.77;;;6.45;;
45254;SDS011;30989;52.078;21.014;2023-02-28T14:37:39;11.73;;;5.53;;
45254;SDS011;30989;52.078;21.014;2023-02-28T14:40:16;11.45;;;6.00;;
45254;SDS011;30989;52.078;21.014;2023-02-28T14:42:57;13.73;;;6.75;;
45254;SDS011;30989;52.078;21.014;2023-02-28T14:45:28;12.40;;;6.28;;
45254;SDS011;30989;52.078;21.014;2023-02-28T14:47:56;11.38;;;6.00;;
45254;SDS011;30989;52.078;21.014;2023-02-28T14:50:33;12.70;;;6.07;;
45254;SDS011;30989;52.078;21.014;2023-02-28T14:53:00;9.57;;;5.57;;
45254;SDS011;30989;52.078;21.014;2023-02-28T14:55:31;12.50;;;6.70;;
45254;SDS011;30989;52.078;21.014;2023-02-28T14:58:00;11.35;;;6.07;;
45254;SDS011;30989;52.078;21.014;2023-02-28T15:00:35;12.10;;;5.93;;
45254;SDS011;30989;52.078;21.014;2023-02-28T15:03:17;11.33;;;5.97;;
45254;SDS011;30989;52.078;21.014;2023-02-28T15:05:56;14.65;;;7.05;;
45254;SDS011;30989;52.078;21.014;2023-02-28T15:08:23;12.85;;;6.57;;
45254;SDS011;30989;52.078;21.014;2023-02-28T15:10:59;19.10;;;8.32;;
45254;SDS011;30989;52.078;21.014;2023-02-28T15:13:38;17.15;;;6.72;;
45254;SDS011;30989;52.078;21.014;2023-02-28T15:16:19;14.75;;;6.65;;
45254;SDS011;30989;52.078;21.014;2023-02-28T15:21:27;15.07;;;5.82;;
45254;SDS011;30989;52.078;21.014;2023-02-28T15:23:57;14.23;;;5.95;;
45254;SDS011;30989;52.078;21.014;2023-02-28T15:26:36;17.60;;;7.32;;
45254;SDS011;30989;52.078;21.014;2023-02-28T15:29:12;14.70;;;6.63;;
45254;SDS011;30989;52.078;21.014;2023-02-28T15:31:46;14.57;;;6.30;;
45254;SDS011;30989;52.078;21.014;2023-02-28T15:34:47;16.65;;;7.63;;
45254;SDS011;30989;52.078;21.014;2023-02-28T15:39:51;18.25;;;7.53;;
45254;SDS011;30989;52.078;21.014;2023-02-28T15:42:18;18.25;;;7.45;;
45254;SDS011;30989;52.078;21.014;2023-02-28T15:44:45;15.23;;;6.90;;
45254;SDS011;30989;52.078;21.014;2023-02-28T15:49:48;20.23;;;8.57;;
45254;SDS011;30989;52.078;21.014;2023-02-28T15:52:18;18.60;;;7.47;;
45254;SDS011;30989;52.078;21.014;2023-02-28T15:54:53;17.98;;;6.78;;
45254;SDS011;30989;52.078;21.014;2023-02-28T15:57:20;16.30;;;7.05;;
45254;SDS011;30989;52.078;21.014;2023-02-28T15:59:50;26.70;;;9.75;;
45254;SDS011;30989;52.078;21.014;2023-02-28T16:02:20;30.65;;;13.50;;
45254;SDS011;30989;52.078;21.014;2023-02-28T16:04:54;19.35;;;9.45;;
45254;SDS011;30989;52.078;21.014;2023-02-28T16:07:27;21.27;;;9.70;;
45254;SDS011;30989;52.078;21.014;2023-02-28T16:09:53;21.63;;;8.88;;
45254;SDS011;30989;52.078;21.014;2023-02-28T16:12:19;23.45;;;8.82;;
45254;SDS011;30989;52.078;21.014;2023-02-28T16:14:50;19.15;;;9.35;;
45254;SDS011;30989;52.078;21.014;2023-02-28T16:17:21;20.00;;;9.70;;
45254;SDS011;30989;52.078;21.014;2023-02-28T16:19:49;18.48;;;8.90;;
45254;SDS011;30989;52.078;21.014;2023-02-28T16:22:14;25.50;;;8.63;;
45254;SDS011;30989;52.078;21.014;2023-02-28T16:24:39;20.23;;;8.93;;
45254;SDS011;30989;52.078;21.014;2023-02-28T16:27:05;32.85;;;10.55;;
45254;SDS011;30989;52.078;21.014;2023-02-28T16:29:34;26.48;;;10.18;;
45254;SDS011;30989;52.078;21.014;2023-02-28T16:32:04;21.08;;;9.25;;
45254;SDS011;30989;52.078;21.014;2023-02-28T16:34:31;24.58;;;10.07;;
45254;SDS011;30989;52.078;21.014;2023-02-28T16:36:56;24.20;;;11.00;;
45254;SDS011;30989;52.078;21.014;2023-02-28T16:39:23;26.20;;;10.98;;
45254;SDS011;30989;52.078;21.014;2023-02-28T16:41:49;30.77;;;12.15;;
45254;SDS011;30989;52.078;21.014;2023-02-28T16:44:29;30.85;;;12.77;;
45254;SDS011;30989;52.078;21.014;2023-02-28T16:46:56;31.63;;;13.63;;
45254;SDS011;30989;52.078;21.014;2023-02-28T16:49:25;32.70;;;13.65;;
45254;SDS011;30989;52.078;21.014;2023-02-28T16:51:50;32.97;;;14.02;;
45254;SDS011;30989;52.078;21.014;2023-02-28T16:54:16;31.52;;;13.02;;
45254;SDS011;30989;52.078;21.014;2023-02-28T16:56:43;34.33;;;14.02;;